createdAt,value
2023-02-19T00:00:09.622Z,3.44
2023-02-19T00:03:04.855Z,3.42
2023-02-19T00:05:36.322Z,3.36
2023-02-19T00:08:05.730Z,3.45
2023-02-19T00:10:35.086Z,3.48
2023-02-19T00:13:04.111Z,3.47
2023-02-19T00:15:35.663Z,3.52
2023-02-19T00:18:04.832Z,3.43
2023-02-19T00:20:34.091Z,3.47
2023-02-19T00:23:03.071Z,3.49
2023-02-19T00:25:32.394Z,3.48
2023-02-19T00:28:01.630Z,3.42
2023-02-19T00:30:30.998Z,3.41
2023-02-19T00:33:01.445Z,3.38
2023-02-19T00:35:30.877Z,3.43
2023-02-19T00:37:59.861Z,3.51
2023-02-19T00:40:29.290Z,3.53
2023-02-19T00:42:58.258Z,3.40
2023-02-19T00:45:28.248Z,3.39
2023-02-19T00:47:57.431Z,3.34
2023-02-19T00:50:28.582Z,3.40
2023-02-19T00:52:57.864Z,3.37
2023-02-19T00:55:27.242Z,3.32
2023-02-19T00:57:56.271Z,3.33
2023-02-19T01:00:25.702Z,3.33
2023-02-19T01:02:55.095Z,3.36
2023-02-19T01:05:29.814Z,3.40
2023-02-19T01:07:58.885Z,3.36
2023-02-19T01:10:28.351Z,3.25
2023-02-19T01:12:57.417Z,3.23
2023-02-19T01:15:26.756Z,3.28
2023-02-19T01:17:56.047Z,3.31
2023-02-19T01:20:26.159Z,3.27
2023-02-19T01:22:56.595Z,3.32
2023-02-19T01:25:25.965Z,3.36
2023-02-19T01:27:55.015Z,3.35
2023-02-19T01:30:24.449Z,3.34
2023-02-19T01:32:53.493Z,3.30
2023-02-19T01:35:23.062Z,3.28
2023-02-19T01:37:52.252Z,3.23
2023-02-19T01:40:23.088Z,3.20
2023-02-19T01:42:52.289Z,3.25
2023-02-19T01:45:30.027Z,3.16
2023-02-19T01:48:10.475Z,3.16
2023-02-19T01:50:45.264Z,3.17
2023-02-19T01:53:17.953Z,3.09
2023-02-19T01:55:53.212Z,3.05
2023-02-19T01:58:22.845Z,3.12
2023-02-19T02:00:52.638Z,3.01
2023-02-19T02:03:22.312Z,3.12
2023-02-19T02:05:57.217Z,3.06
2023-02-19T02:08:45.572Z,3.16
2023-02-19T02:11:17.023Z,3.19
2023-02-19T02:13:46.531Z,3.10
2023-02-19T02:16:24.401Z,3.04
2023-02-19T02:19:02.977Z,3.12
2023-02-19T02:21:58.990Z,3.06
2023-02-19T02:24:54.183Z,3.16
2023-02-19T02:27:54.244Z,3.06
2023-02-19T02:30:40.848Z,3.07
2023-02-19T02:33:21.861Z,3.09
2023-02-19T02:35:55.190Z,3.03
2023-02-19T02:38:29.901Z,3.05
2023-02-19T02:40:59.734Z,3.08
2023-02-19T02:43:29.226Z,3.13
2023-02-19T02:46:00.093Z,3.04
2023-02-19T02:48:38.413Z,3.10
2023-02-19T02:51:17.458Z,3.16
2023-02-19T02:54:15.691Z,3.27
2023-02-19T02:56:46.465Z,3.28
2023-02-19T02:59:19.849Z,3.24
2023-02-19T03:02:12.405Z,3.27
2023-02-19T03:05:08.333Z,3.32
2023-02-19T03:07:40.884Z,3.36
2023-02-19T03:10:14.588Z,3.26
2023-02-19T03:13:04.121Z,3.30
2023-02-19T03:15:55.596Z,3.35
2023-02-19T03:18:47.411Z,3.24
2023-02-19T03:21:20.415Z,3.31
2023-02-19T03:24:09.287Z,3.29
2023-02-19T03:26:40.996Z,3.33
2023-02-19T03:29:33.852Z,3.31
2023-02-19T03:32:11.190Z,3.32
2023-02-19T03:34:47.374Z,3.21
2023-02-19T03:37:25.160Z,3.26
2023-02-19T03:39:56.519Z,3.18
2023-02-19T03:42:37.439Z,3.28
2023-02-19T03:45:25.015Z,3.22
2023-02-19T03:48:05.093Z,3.17
2023-02-19T03:50:46.151Z,3.19
2023-02-19T03:53:25.782Z,3.08
2023-02-19T03:56:07.161Z,3.17
2023-02-19T03:58:45.960Z,3.20
2023-02-19T04:01:20.878Z,3.18
2023-02-19T04:03:56.033Z,3.22
2023-02-19T04:06:29.430Z,3.12
2023-02-19T04:09:01.570Z,3.11
2023-02-19T04:11:33.652Z,3.16
2023-02-19T04:14:11.333Z,3.16
2023-02-19T04:16:45.373Z,3.22
2023-02-19T04:19:19.581Z,3.27
2023-02-19T04:21:54.188Z,3.23
2023-02-19T04:24:29.114Z,3.15
2023-02-19T04:26:58.416Z,3.15
2023-02-19T04:29:27.768Z,3.14
2023-02-19T04:31:56.899Z,3.16
2023-02-19T04:34:26.328Z,3.05
2023-02-19T04:36:56.702Z,3.01
2023-02-19T04:39:26.071Z,3.07
2023-02-19T04:41:55.147Z,2.98
2023-02-19T04:44:24.599Z,3.02
2023-02-19T04:46:53.670Z,3.06
2023-02-19T04:49:22.980Z,3.05
2023-02-19T04:51:51.964Z,3.09
2023-02-19T04:54:22.647Z,3.08
2023-02-19T04:56:51.809Z,3.12
2023-02-19T04:59:21.062Z,3.14
2023-02-19T05:01:50.095Z,3.10
2023-02-19T05:04:19.501Z,3.11
2023-02-19T05:06:48.567Z,3.01
2023-02-19T05:09:18.262Z,2.97
2023-02-19T05:11:48.672Z,2.95
2023-02-19T05:14:18.343Z,2.95
2023-02-19T05:16:47.394Z,3.03
2023-02-19T05:19:16.659Z,3.03
2023-02-19T05:21:45.721Z,3.05
2023-02-19T05:24:15.046Z,3.07
2023-02-19T05:26:45.441Z,3.12
2023-02-19T05:29:16.404Z,3.10
2023-02-19T05:31:45.720Z,3.13
2023-02-19T05:34:15.112Z,3.10
2023-02-19T05:36:44.286Z,3.10
2023-02-19T05:39:13.920Z,3.04
2023-02-19T05:41:42.998Z,3.04
2023-02-19T05:44:12.716Z,3.07
2023-02-19T05:46:43.206Z,3.00
2023-02-19T05:49:13.130Z,3.09
2023-02-19T05:51:42.252Z,3.03
2023-02-19T05:54:11.549Z,3.00
2023-02-19T05:56:43.151Z,3.00
2023-02-19T05:59:18.009Z,2.96
2023-02-19T06:01:49.249Z,2.95
2023-02-19T06:04:20.058Z,2.95
2023-02-19T06:06:50.485Z,2.99
2023-02-19T06:09:19.856Z,2.99
2023-02-19T06:11:48.819Z,3.01
2023-02-19T06:14:18.257Z,3.03
2023-02-19T06:16:48.699Z,3.08
2023-02-19T06:19:18.085Z,3.11
2023-02-19T06:21:47.175Z,3.13
2023-02-19T06:24:16.417Z,3.08
2023-02-19T06:26:46.551Z,3.09
2023-02-19T06:29:15.660Z,3.06
2023-02-19T06:31:44.895Z,3.00
2023-02-19T06:34:15.799Z,3.02
2023-02-19T06:36:44.919Z,3.04
2023-02-19T06:39:14.248Z,3.00
2023-02-19T06:41:43.375Z,3.02
2023-02-19T06:44:12.655Z,3.04
2023-02-19T06:46:41.723Z,3.12
2023-02-19T06:49:11.045Z,3.11
2023-02-19T06:51:41.456Z,3.17
2023-02-19T06:54:10.986Z,3.24
2023-02-19T06:56:41.142Z,3.27
2023-02-19T06:59:13.450Z,3.33
2023-02-19T07:01:42.775Z,3.36
2023-02-19T07:04:12.712Z,3.40
2023-02-19T07:06:43.611Z,3.41
2023-02-19T07:09:13.215Z,3.37
2023-02-19T07:11:42.491Z,3.39
2023-02-19T07:14:17.626Z,3.30
2023-02-19T07:16:47.417Z,3.31
2023-02-19T07:19:17.492Z,3.30
2023-02-19T07:21:47.894Z,3.26
2023-02-19T07:24:17.442Z,3.28
2023-02-19T07:26:46.442Z,3.32
2023-02-19T07:29:15.781Z,3.26
2023-02-19T07:31:45.144Z,3.28
2023-02-19T07:34:14.533Z,3.24
2023-02-19T07:36:43.481Z,3.28
2023-02-19T07:39:15.771Z,3.35
2023-02-19T07:41:44.860Z,3.40
2023-02-19T07:44:25.369Z,3.38
2023-02-19T07:46:54.433Z,3.34
2023-02-19T07:49:23.732Z,3.39
2023-02-19T07:51:52.790Z,3.31
2023-02-19T07:54:23.567Z,3.38
2023-02-19T07:56:52.704Z,3.48
2023-02-19T07:59:22.628Z,3.52
2023-02-19T08:02:08.975Z,3.53
2023-02-19T08:04:38.382Z,3.57
2023-02-19T08:07:07.450Z,3.62
2023-02-19T08:09:38.207Z,3.61
2023-02-19T08:12:24.886Z,3.56
2023-02-19T08:14:54.371Z,3.63
2023-02-19T08:17:23.658Z,3.64
2023-02-19T08:19:52.990Z,3.72
2023-02-19T08:22:22.172Z,3.75
2023-02-19T08:24:52.870Z,3.76
2023-02-19T08:27:21.921Z,3.82
2023-02-19T08:29:51.185Z,3.89
2023-02-19T08:32:20.231Z,3.95
2023-02-19T08:34:49.574Z,3.92
2023-02-19T08:37:19.387Z,3.95
2023-02-19T08:39:48.844Z,4.07
2023-02-19T08:42:19.258Z,4.14
2023-02-19T08:44:48.959Z,4.15
2023-02-19T08:47:18.196Z,4.23
2023-02-19T08:49:47.592Z,4.27
2023-02-19T08:52:16.568Z,4.34
2023-02-19T08:54:45.915Z,4.37
2023-02-19T08:57:15.106Z,4.33
2023-02-19T08:59:45.768Z,4.36
2023-02-19T09:02:14.831Z,4.43
2023-02-19T09:04:44.136Z,4.43
2023-02-19T09:07:14.470Z,4.49
2023-02-19T09:09:43.820Z,4.53
2023-02-19T09:12:14.008Z,4.60
2023-02-19T09:14:45.916Z,4.67
2023-02-19T09:17:14.999Z,4.72
2023-02-19T09:19:44.347Z,4.78
2023-02-19T09:22:13.433Z,4.83
2023-02-19T09:24:43.655Z,4.88
2023-02-19T09:27:18.605Z,4.94
2023-02-19T09:29:49.363Z,4.98
2023-02-19T09:32:19.301Z,5.09
2023-02-19T09:34:48.890Z,5.22
2023-02-19T09:37:17.868Z,5.33
2023-02-19T09:39:47.209Z,5.42
2023-02-19T09:42:19.553Z,5.45
2023-02-19T09:44:53.349Z,5.49
2023-02-19T09:47:24.805Z,5.56
2023-02-19T09:49:57.058Z,5.60
2023-02-19T09:52:33.591Z,5.65
2023-02-19T09:55:10.424Z,5.64
2023-02-19T09:57:39.909Z,5.75
2023-02-19T10:00:23.342Z,5.80
2023-02-19T10:03:00.493Z,5.76
2023-02-19T10:05:30.356Z,5.84
2023-02-19T10:08:00.292Z,5.81
2023-02-19T10:10:31.709Z,5.86
2023-02-19T10:17:59.237Z,6.03
2023-02-19T10:20:29.164Z,6.13
2023-02-19T10:23:03.200Z,6.23
2023-02-19T10:25:34.572Z,6.29
2023-02-19T10:28:05.404Z,6.29
2023-02-19T10:30:37.546Z,6.35
2023-02-19T10:33:13.329Z,6.40
2023-02-19T10:35:55.557Z,6.36
2023-02-19T10:38:28.327Z,6.33
2023-02-19T10:41:05.387Z,6.35
2023-02-19T10:43:37.253Z,6.34
2023-02-19T10:46:15.378Z,6.31
2023-02-19T10:48:51.442Z,6.31
2023-02-19T10:51:22.984Z,6.16
2023-02-19T10:54:05.104Z,6.10
2023-02-19T10:56:34.915Z,6.12
2023-02-19T10:59:24.402Z,5.90
2023-02-19T11:01:58.812Z,5.89
2023-02-19T11:04:34.051Z,5.96
2023-02-19T11:07:10.793Z,6.14
2023-02-19T11:09:41.525Z,6.14
2023-02-19T11:12:12.645Z,6.21
2023-02-19T11:14:45.602Z,6.48
2023-02-19T11:17:25.087Z,6.63
2023-02-19T11:19:57.690Z,6.73
2023-02-19T11:22:33.385Z,6.46
2023-02-19T11:25:07.541Z,6.45
2023-02-19T11:27:37.675Z,6.64
2023-02-19T11:30:48.565Z,6.71
2023-02-19T11:33:27.424Z,7.13
2023-02-19T11:36:18.884Z,7.26
2023-02-19T11:38:48.398Z,7.31
2023-02-19T11:41:28.319Z,7.69
2023-02-19T11:44:08.047Z,7.55
2023-02-19T11:46:52.133Z,7.55
2023-02-19T11:49:38.487Z,7.66
2023-02-19T11:52:23.469Z,7.93
2023-02-19T11:54:58.262Z,7.69
2023-02-19T11:57:41.657Z,7.49
2023-02-19T12:00:55.812Z,7.25
2023-02-19T12:09:08.612Z,7.12
2023-02-19T12:30:00.521Z,7.84
2023-02-19T12:33:17.151Z,7.71
2023-02-19T12:35:56.551Z,7.51
2023-02-19T12:50:28.828Z,6.96
2023-02-19T12:53:11.197Z,6.93
2023-02-19T12:55:44.157Z,6.88
2023-02-19T12:58:21.874Z,6.86
2023-02-19T13:24:26.298Z,7.76
2023-02-19T13:27:13.960Z,7.73
2023-02-19T13:30:01.735Z,7.61
2023-02-19T13:32:52.760Z,7.43
2023-02-19T13:35:47.928Z,7.24
2023-02-19T13:38:17.796Z,7.20
2023-02-19T13:40:57.989Z,7.09
2023-02-19T13:43:35.847Z,7.15
2023-02-19T13:46:52.074Z,7.26
2023-02-19T13:49:49.786Z,7.35
2023-02-19T13:52:41.460Z,7.37
2023-02-19T14:09:49.293Z,7.18
2023-02-19T14:12:23.266Z,7.21
2023-02-19T14:14:53.279Z,7.19
2023-02-19T14:21:43.928Z,7.32
2023-02-19T14:24:15.913Z,7.34
2023-02-19T14:26:46.631Z,7.37
2023-02-19T14:30:10.094Z,7.41
2023-02-19T14:32:43.614Z,7.43
2023-02-19T14:35:20.862Z,7.50
2023-02-19T14:37:51.452Z,7.46
2023-02-19T14:40:25.139Z,7.24
2023-02-19T14:43:01.032Z,7.04
2023-02-19T14:45:35.352Z,6.85
2023-02-19T14:48:04.884Z,6.69
2023-02-19T14:50:36.145Z,6.60
2023-02-19T14:53:08.410Z,6.48
2023-02-19T14:55:42.615Z,6.23
2023-02-19T14:58:18.317Z,6.16
2023-02-19T15:00:47.704Z,6.02
2023-02-19T15:03:29.263Z,5.93
2023-02-19T15:06:03.576Z,5.81
2023-02-19T15:08:39.381Z,5.80
2023-02-19T15:11:13.866Z,5.70
2023-02-19T15:13:45.853Z,5.66
2023-02-19T15:16:20.692Z,5.60
2023-02-19T15:18:51.882Z,5.56
2023-02-19T15:21:25.800Z,5.36
2023-02-19T15:23:57.008Z,5.34
2023-02-19T15:26:34.168Z,5.23
2023-02-19T15:29:10.924Z,5.24
2023-02-19T15:31:48.481Z,5.13
2023-02-19T15:34:20.143Z,5.09
2023-02-19T15:36:51.652Z,5.02
2023-02-19T15:39:25.613Z,4.98
2023-02-19T15:42:00.227Z,4.94
2023-02-19T15:44:37.384Z,4.94
2023-02-19T15:47:14.624Z,4.87
2023-02-19T15:49:51.112Z,4.81
2023-02-19T15:52:30.000Z,4.73
2023-02-19T15:55:03.681Z,4.62
2023-02-19T15:57:36.966Z,4.57
2023-02-19T16:00:14.868Z,4.60
2023-02-19T16:02:44.520Z,4.51
2023-02-19T16:05:17.873Z,4.48
2023-02-19T16:07:47.264Z,4.44
2023-02-19T16:10:23.035Z,4.43
2023-02-19T16:12:59.992Z,4.39
2023-02-19T16:15:33.045Z,4.35
2023-02-19T16:18:03.147Z,4.34
2023-02-19T16:20:34.862Z,4.35
2023-02-19T16:23:11.680Z,4.33
2023-02-19T16:25:44.214Z,4.26
2023-02-19T16:28:15.972Z,4.22
2023-02-19T16:30:46.683Z,4.08
2023-02-19T16:33:39.849Z,4.05
2023-02-19T17:00:51.922Z,3.60
2023-02-19T17:44:02.955Z,3.15
2023-02-19T17:51:31.835Z,3.09
2023-02-19T17:54:26.105Z,3.09
2023-02-19T18:16:38.047Z,3.10
2023-02-19T18:19:58.011Z,3.08
2023-02-19T18:22:27.349Z,3.08
2023-02-19T18:24:56.929Z,3.08
2023-02-19T18:27:26.051Z,3.03
2023-02-19T18:34:44.226Z,3.01
2023-02-19T18:37:13.717Z,2.99
2023-02-19T18:39:44.000Z,2.94
2023-02-19T18:42:14.178Z,2.82
2023-02-19T18:44:43.826Z,2.80
2023-02-19T18:47:13.449Z,2.83
2023-02-19T18:49:48.496Z,2.63
2023-02-19T18:52:20.311Z,2.65
2023-02-19T18:54:51.761Z,2.58
2023-02-19T18:57:22.441Z,2.58
2023-02-19T18:59:51.756Z,2.54
2023-02-19T19:02:21.781Z,2.58
2023-02-19T19:04:54.129Z,2.58
2023-02-19T19:07:23.944Z,2.52
2023-02-19T19:09:53.418Z,2.55
2023-02-19T19:12:22.908Z,2.56
2023-02-19T19:14:52.228Z,2.59
2023-02-19T19:17:21.605Z,2.65
2023-02-19T19:19:52.054Z,2.63
2023-02-19T19:22:22.882Z,2.68
2023-02-19T19:24:52.141Z,2.67
2023-02-19T19:27:21.906Z,2.74
2023-02-19T19:29:51.114Z,2.76
2023-02-19T19:32:20.536Z,2.81
2023-02-19T19:34:51.154Z,2.84
2023-02-19T19:37:20.556Z,2.84
2023-02-19T19:39:49.596Z,2.80
2023-02-19T19:42:18.904Z,2.78
2023-02-19T19:44:48.169Z,2.78
2023-02-19T19:47:17.562Z,2.81
2023-02-19T19:49:48.319Z,2.83
2023-02-19T19:52:19.175Z,2.82
2023-02-19T19:54:48.708Z,2.84
2023-02-19T19:57:18.406Z,2.81
2023-02-19T19:59:51.413Z,2.76
2023-02-19T20:02:21.240Z,2.79
2023-02-19T20:04:50.411Z,2.84
2023-02-19T20:07:21.450Z,2.92
2023-02-19T20:09:51.213Z,2.88
2023-02-19T20:12:20.599Z,2.96
2023-02-19T20:14:49.644Z,2.99
2023-02-19T20:17:19.423Z,2.98
2023-02-19T20:19:48.708Z,3.02
2023-02-19T20:22:18.282Z,2.98
2023-02-19T20:24:51.770Z,3.00
2023-02-19T20:27:21.836Z,3.06
2023-02-19T20:29:51.287Z,3.12
2023-02-19T20:32:20.789Z,3.11
2023-02-19T20:34:51.324Z,3.19
2023-02-19T20:37:20.740Z,3.07
2023-02-19T20:39:51.104Z,3.03
2023-02-19T20:42:20.656Z,3.07
2023-02-19T20:44:49.710Z,3.03
2023-02-19T20:47:19.037Z,3.03
2023-02-19T20:49:48.204Z,3.06
2023-02-19T20:52:19.164Z,3.12
2023-02-19T20:54:50.891Z,3.07
2023-02-19T20:57:20.495Z,3.15
2023-02-19T20:59:50.943Z,3.18
2023-02-19T21:02:23.321Z,3.19
2023-02-19T21:04:52.619Z,3.26
2023-02-19T21:07:21.871Z,3.26
2023-02-19T21:09:52.657Z,3.31
2023-02-19T21:12:22.604Z,3.33
2023-02-19T21:14:51.823Z,3.27
2023-02-19T21:17:21.404Z,3.23
2023-02-19T21:19:50.411Z,3.24
2023-02-19T21:22:19.889Z,3.31
2023-02-19T21:24:53.709Z,3.28
2023-02-19T21:27:23.045Z,3.26
2023-02-19T21:29:52.185Z,3.33
2023-02-19T21:32:21.781Z,3.31
2023-02-19T21:34:51.292Z,3.31
2023-02-19T21:37:20.681Z,3.30
2023-02-19T21:39:49.986Z,3.33
2023-02-19T21:52:09.220Z,3.45
2023-02-19T21:54:40.317Z,3.46
2023-02-19T21:57:11.556Z,3.42
2023-02-19T21:59:44.047Z,3.51
2023-02-19T22:02:14.478Z,3.55
2023-02-19T22:04:45.301Z,3.60
2023-02-19T22:07:17.088Z,3.60
2023-02-19T22:09:47.112Z,3.55
2023-02-19T22:12:16.293Z,3.68
2023-02-19T22:14:45.924Z,3.70
2023-02-19T22:17:15.456Z,3.63
2023-02-19T22:19:44.798Z,3.59
2023-02-19T22:22:15.434Z,3.52
2023-02-19T22:24:44.909Z,3.50
2023-02-19T22:27:16.144Z,3.49
2023-02-19T22:29:45.596Z,3.55
2023-02-19T22:32:14.635Z,3.56
2023-02-19T22:34:44.084Z,3.54
2023-02-19T22:37:14.459Z,3.52
2023-02-19T22:39:43.730Z,3.50
2023-02-19T22:42:12.748Z,3.47
2023-02-19T22:44:44.576Z,3.40
2023-02-19T22:47:13.640Z,3.46
2023-02-19T22:49:43.964Z,3.45
2023-02-19T22:52:15.114Z,3.38
2023-02-19T22:54:44.469Z,3.35
2023-02-19T22:57:13.592Z,3.41
2023-02-19T22:59:43.077Z,3.45
2023-02-19T23:02:12.075Z,3.43
2023-02-19T23:04:41.398Z,3.35
2023-02-19T23:07:10.804Z,3.42
2023-02-19T23:09:41.486Z,3.31
2023-02-19T23:12:12.588Z,3.33
2023-02-19T23:14:41.987Z,3.40
2023-02-19T23:17:11.040Z,3.39
2023-02-19T23:19:40.426Z,3.44
2023-02-19T23:22:09.657Z,3.42
2023-02-19T23:24:40.681Z,3.42
2023-02-19T23:27:09.665Z,3.46
2023-02-19T23:29:38.940Z,3.47
2023-02-19T23:32:08.132Z,3.51
2023-02-19T23:34:37.461Z,3.51
2023-02-19T23:37:06.702Z,3.57
2023-02-19T23:39:36.017Z,3.58
2023-02-19T23:42:06.510Z,3.57
2023-02-19T23:44:35.903Z,3.55
2023-02-19T23:47:04.880Z,3.60
2023-02-19T23:49:34.252Z,3.61
2023-02-19T23:52:03.380Z,3.70
2023-02-19T23:54:32.825Z,3.75
2023-02-19T23:57:01.956Z,3.69
2023-02-19T23:59:32.726Z,3.77
